sensor_id;sensor_type;location;lat;lon;timestamp;P1;durP1;ratioP1;P2;durP2;ratioP2
41887;SDS011;63122;52.424;13.458;2022-12-07T00:02:14;16.73;;;9.53;;
41887;SDS011;63122;52.424;13.458;2022-12-07T00:04:48;11.97;;;7.63;;
41887;SDS011;63122;52.424;13.458;2022-12-07T00:07:18;22.10;;;11.63;;
41887;SDS011;63122;52.424;13.458;2022-12-07T00:09:53;16.70;;;10.03;;
41887;SDS011;63122;52.424;13.458;2022-12-07T00:12:24;18.63;;;11.17;;
41887;SDS011;63122;52.424;13.458;2022-12-07T00:14:56;17.73;;;9.90;;
41887;SDS011;63122;52.424;13.458;2022-12-07T00:17:27;16.17;;;8.97;;
41887;SDS011;63122;52.424;13.458;2022-12-07T00:19:57;16.83;;;9.67;;
41887;SDS011;63122;52.424;13.458;2022-12-07T00:22:28;18.17;;;9.77;;
41887;SDS011;63122;52.424;13.458;2022-12-07T00:24:59;14.63;;;9.87;;
41887;SDS011;63122;52.424;13.458;2022-12-07T00:27:34;15.37;;;8.43;;
41887;SDS011;63122;52.424;13.458;2022-12-07T00:30:08;20.07;;;9.33;;
41887;SDS011;63122;52.424;13.458;2022-12-07T00:32:39;13.53;;;8.97;;
41887;SDS011;63122;52.424;13.458;2022-12-07T00:35:09;15.90;;;9.37;;
41887;SDS011;63122;52.424;13.458;2022-12-07T00:37:40;13.80;;;8.93;;
41887;SDS011;63122;52.424;13.458;2022-12-07T00:40:11;11.03;;;8.20;;
41887;SDS011;63122;52.424;13.458;2022-12-07T00:42:42;13.37;;;7.83;;
41887;SDS011;63122;52.424;13.458;2022-12-07T00:45:15;12.27;;;8.80;;
41887;SDS011;63122;52.424;13.458;2022-12-07T00:47:45;16.37;;;9.13;;
41887;SDS011;63122;52.424;13.458;2022-12-07T00:50:16;12.17;;;9.00;;
41887;SDS011;63122;52.424;13.458;2022-12-07T00:52:46;12.50;;;8.47;;
41887;SDS011;63122;52.424;13.458;2022-12-07T00:55:16;10.37;;;7.47;;
41887;SDS011;63122;52.424;13.458;2022-12-07T00:57:47;12.50;;;8.63;;
41887;SDS011;63122;52.424;13.458;2022-12-07T01:00:19;7.00;;;4.53;;
41887;SDS011;63122;52.424;13.458;2022-12-07T01:02:50;11.60;;;7.57;;
41887;SDS011;63122;52.424;13.458;2022-12-07T01:05:20;11.17;;;7.03;;
41887;SDS011;63122;52.424;13.458;2022-12-07T01:07:51;10.50;;;7.50;;
41887;SDS011;63122;52.424;13.458;2022-12-07T01:10:21;11.57;;;6.67;;
41887;SDS011;63122;52.424;13.458;2022-12-07T01:12:52;12.43;;;7.10;;
41887;SDS011;63122;52.424;13.458;2022-12-07T01:15:25;8.53;;;6.40;;
41887;SDS011;63122;52.424;13.458;2022-12-07T01:17:56;10.43;;;6.40;;
41887;SDS011;63122;52.424;13.458;2022-12-07T01:20:26;10.40;;;6.97;;
41887;SDS011;63122;52.424;13.458;2022-12-07T01:22:56;9.77;;;6.30;;
41887;SDS011;63122;52.424;13.458;2022-12-07T01:25:26;7.13;;;5.07;;
41887;SDS011;63122;52.424;13.458;2022-12-07T01:27:57;10.80;;;6.93;;
41887;SDS011;63122;52.424;13.458;2022-12-07T01:30:29;8.77;;;6.30;;
41887;SDS011;63122;52.424;13.458;2022-12-07T01:33:00;10.17;;;6.77;;
41887;SDS011;63122;52.424;13.458;2022-12-07T01:35:30;8.50;;;5.60;;
41887;SDS011;63122;52.424;13.458;2022-12-07T01:38:03;9.40;;;6.27;;
41887;SDS011;63122;52.424;13.458;2022-12-07T01:40:33;8.93;;;5.97;;
41887;SDS011;63122;52.424;13.458;2022-12-07T01:43:04;8.90;;;5.30;;
41887;SDS011;63122;52.424;13.458;2022-12-07T01:45:41;10.73;;;5.97;;
41887;SDS011;63122;52.424;13.458;2022-12-07T01:48:12;6.83;;;5.30;;
41887;SDS011;63122;52.424;13.458;2022-12-07T01:50:45;8.97;;;5.60;;
41887;SDS011;63122;52.424;13.458;2022-12-07T01:53:18;9.07;;;6.10;;
41887;SDS011;63122;52.424;13.458;2022-12-07T01:55:49;8.67;;;5.47;;
41887;SDS011;63122;52.424;13.458;2022-12-07T01:58:21;8.60;;;5.57;;
41887;SDS011;63122;52.424;13.458;2022-12-07T02:00:55;7.73;;;5.47;;
41887;SDS011;63122;52.424;13.458;2022-12-07T02:03:27;6.43;;;4.67;;
41887;SDS011;63122;52.424;13.458;2022-12-07T02:06:01;10.37;;;5.73;;
41887;SDS011;63122;52.424;13.458;2022-12-07T02:08:32;10.30;;;5.03;;
41887;SDS011;63122;52.424;13.458;2022-12-07T02:11:08;11.27;;;5.47;;
41887;SDS011;63122;52.424;13.458;2022-12-07T02:13:39;8.77;;;5.33;;
41887;SDS011;63122;52.424;13.458;2022-12-07T02:16:18;8.13;;;4.90;;
41887;SDS011;63122;52.424;13.458;2022-12-07T02:19:07;8.13;;;5.80;;
41887;SDS011;63122;52.424;13.458;2022-12-07T02:21:58;10.17;;;6.33;;
41887;SDS011;63122;52.424;13.458;2022-12-07T02:24:48;6.47;;;4.63;;
41887;SDS011;63122;52.424;13.458;2022-12-07T02:27:29;9.23;;;5.40;;
41887;SDS011;63122;52.424;13.458;2022-12-07T02:30:10;10.13;;;5.50;;
41887;SDS011;63122;52.424;13.458;2022-12-07T02:32:44;9.17;;;6.00;;
41887;SDS011;63122;52.424;13.458;2022-12-07T02:35:22;16.47;;;5.40;;
41887;SDS011;63122;52.424;13.458;2022-12-07T02:37:58;8.87;;;5.53;;
41887;SDS011;63122;52.424;13.458;2022-12-07T02:40:33;10.03;;;5.47;;
41887;SDS011;63122;52.424;13.458;2022-12-07T02:43:09;10.87;;;5.63;;
41887;SDS011;63122;52.424;13.458;2022-12-07T02:45:47;7.60;;;5.23;;
41887;SDS011;63122;52.424;13.458;2022-12-07T02:48:20;9.00;;;5.83;;
41887;SDS011;63122;52.424;13.458;2022-12-07T02:50:52;5.63;;;3.40;;
41887;SDS011;63122;52.424;13.458;2022-12-07T02:53:28;5.73;;;4.40;;
41887;SDS011;63122;52.424;13.458;2022-12-07T02:56:00;10.07;;;5.07;;
41887;SDS011;63122;52.424;13.458;2022-12-07T02:58:38;7.20;;;5.03;;
41887;SDS011;63122;52.424;13.458;2022-12-07T03:01:21;7.93;;;5.20;;
41887;SDS011;63122;52.424;13.458;2022-12-07T03:04:02;6.63;;;4.93;;
41887;SDS011;63122;52.424;13.458;2022-12-07T03:06:42;6.77;;;4.63;;
41887;SDS011;63122;52.424;13.458;2022-12-07T03:09:18;7.03;;;4.80;;
41887;SDS011;63122;52.424;13.458;2022-12-07T03:11:58;6.17;;;2.80;;
41887;SDS011;63122;52.424;13.458;2022-12-07T03:14:38;7.33;;;5.07;;
41887;SDS011;63122;52.424;13.458;2022-12-07T03:17:20;8.90;;;5.23;;
41887;SDS011;63122;52.424;13.458;2022-12-07T03:19:59;9.57;;;5.03;;
41887;SDS011;63122;52.424;13.458;2022-12-07T03:22:34;12.13;;;6.60;;
41887;SDS011;63122;52.424;13.458;2022-12-07T03:25:08;8.63;;;5.27;;
41887;SDS011;63122;52.424;13.458;2022-12-07T03:27:44;9.10;;;5.40;;
41887;SDS011;63122;52.424;13.458;2022-12-07T03:30:23;10.13;;;6.23;;
41887;SDS011;63122;52.424;13.458;2022-12-07T03:33:00;10.90;;;6.00;;
41887;SDS011;63122;52.424;13.458;2022-12-07T03:35:36;7.80;;;4.33;;
41887;SDS011;63122;52.424;13.458;2022-12-07T03:38:12;8.93;;;5.83;;
41887;SDS011;63122;52.424;13.458;2022-12-07T03:40:48;9.83;;;5.83;;
41887;SDS011;63122;52.424;13.458;2022-12-07T03:43:22;8.70;;;5.60;;
41887;SDS011;63122;52.424;13.458;2022-12-07T03:45:54;9.83;;;6.10;;
41887;SDS011;63122;52.424;13.458;2022-12-07T03:48:35;24.63;;;7.97;;
41887;SDS011;63122;52.424;13.458;2022-12-07T03:51:11;9.40;;;5.13;;
41887;SDS011;63122;52.424;13.458;2022-12-07T03:53:50;12.97;;;7.53;;
41887;SDS011;63122;52.424;13.458;2022-12-07T03:56:25;13.70;;;7.33;;
41887;SDS011;63122;52.424;13.458;2022-12-07T03:58:58;14.23;;;7.37;;
41887;SDS011;63122;52.424;13.458;2022-12-07T04:01:28;13.80;;;7.00;;
41887;SDS011;63122;52.424;13.458;2022-12-07T04:04:01;16.53;;;8.53;;
41887;SDS011;63122;52.424;13.458;2022-12-07T04:06:31;11.90;;;7.93;;
41887;SDS011;63122;52.424;13.458;2022-12-07T04:09:02;15.10;;;8.23;;
41887;SDS011;63122;52.424;13.458;2022-12-07T04:11:32;7.97;;;5.20;;
41887;SDS011;63122;52.424;13.458;2022-12-07T04:14:02;16.60;;;9.63;;
41887;SDS011;63122;52.424;13.458;2022-12-07T04:16:48;16.53;;;9.70;;
41887;SDS011;63122;52.424;13.458;2022-12-07T04:19:23;15.73;;;8.77;;
41887;SDS011;63122;52.424;13.458;2022-12-07T04:21:55;17.50;;;9.57;;
41887;SDS011;63122;52.424;13.458;2022-12-07T04:24:26;17.20;;;10.47;;
41887;SDS011;63122;52.424;13.458;2022-12-07T04:26:57;19.60;;;10.43;;
41887;SDS011;63122;52.424;13.458;2022-12-07T04:29:27;23.17;;;10.63;;
41887;SDS011;63122;52.424;13.458;2022-12-07T04:31:57;19.13;;;11.10;;
41887;SDS011;63122;52.424;13.458;2022-12-07T04:34:31;23.47;;;11.30;;
41887;SDS011;63122;52.424;13.458;2022-12-07T04:37:01;19.23;;;10.43;;
41887;SDS011;63122;52.424;13.458;2022-12-07T04:39:32;24.80;;;12.37;;
41887;SDS011;63122;52.424;13.458;2022-12-07T04:42:03;21.27;;;11.40;;
41887;SDS011;63122;52.424;13.458;2022-12-07T04:44:34;24.60;;;14.57;;
41887;SDS011;63122;52.424;13.458;2022-12-07T04:47:04;21.63;;;9.70;;
41887;SDS011;63122;52.424;13.458;2022-12-07T04:49:38;27.20;;;14.20;;
41887;SDS011;63122;52.424;13.458;2022-12-07T04:52:08;23.70;;;11.77;;
41887;SDS011;63122;52.424;13.458;2022-12-07T04:54:39;31.77;;;15.87;;
41887;SDS011;63122;52.424;13.458;2022-12-07T04:57:09;26.47;;;14.00;;
41887;SDS011;63122;52.424;13.458;2022-12-07T04:59:39;28.30;;;13.53;;
41887;SDS011;63122;52.424;13.458;2022-12-07T05:02:11;29.30;;;16.47;;
41887;SDS011;63122;52.424;13.458;2022-12-07T05:04:45;25.87;;;13.87;;
41887;SDS011;63122;52.424;13.458;2022-12-07T05:07:15;18.73;;;9.93;;
41887;SDS011;63122;52.424;13.458;2022-12-07T05:09:45;22.80;;;9.53;;
41887;SDS011;63122;52.424;13.458;2022-12-07T05:12:15;28.67;;;9.40;;
41887;SDS011;63122;52.424;13.458;2022-12-07T05:14:46;18.30;;;10.47;;
41887;SDS011;63122;52.424;13.458;2022-12-07T05:17:15;13.03;;;6.57;;
41887;SDS011;63122;52.424;13.458;2022-12-07T05:19:48;25.20;;;11.30;;
41887;SDS011;63122;52.424;13.458;2022-12-07T05:22:18;34.27;;;18.03;;
41887;SDS011;63122;52.424;13.458;2022-12-07T05:24:49;26.73;;;11.90;;
41887;SDS011;63122;52.424;13.458;2022-12-07T05:27:18;29.87;;;13.87;;
41887;SDS011;63122;52.424;13.458;2022-12-07T05:29:49;28.70;;;14.40;;
41887;SDS011;63122;52.424;13.458;2022-12-07T05:32:20;30.67;;;15.83;;
41887;SDS011;63122;52.424;13.458;2022-12-07T05:34:53;33.17;;;17.93;;
41887;SDS011;63122;52.424;13.458;2022-12-07T05:37:23;35.60;;;17.57;;
41887;SDS011;63122;52.424;13.458;2022-12-07T05:39:53;36.07;;;18.93;;
41887;SDS011;63122;52.424;13.458;2022-12-07T05:42:23;22.80;;;12.93;;
41887;SDS011;63122;52.424;13.458;2022-12-07T05:44:54;39.17;;;19.23;;
41887;SDS011;63122;52.424;13.458;2022-12-07T05:47:23;41.27;;;19.83;;
41887;SDS011;63122;52.424;13.458;2022-12-07T05:49:56;43.43;;;18.00;;
41887;SDS011;63122;52.424;13.458;2022-12-07T05:52:27;34.23;;;16.00;;
41887;SDS011;63122;52.424;13.458;2022-12-07T05:54:57;49.60;;;20.80;;
41887;SDS011;63122;52.424;13.458;2022-12-07T05:57:27;28.77;;;12.47;;
41887;SDS011;63122;52.424;13.458;2022-12-07T05:59:58;29.43;;;13.27;;
41887;SDS011;63122;52.424;13.458;2022-12-07T06:02:26;22.90;;;10.77;;
41887;SDS011;63122;52.424;13.458;2022-12-07T06:04:59;29.43;;;13.90;;
41887;SDS011;63122;52.424;13.458;2022-12-07T06:07:29;43.10;;;20.23;;
41887;SDS011;63122;52.424;13.458;2022-12-07T06:10:00;49.77;;;22.10;;
41887;SDS011;63122;52.424;13.458;2022-12-07T06:12:30;47.50;;;20.40;;
41887;SDS011;63122;52.424;13.458;2022-12-07T06:15:00;49.53;;;21.23;;
41887;SDS011;63122;52.424;13.458;2022-12-07T06:17:31;46.10;;;20.00;;
41887;SDS011;63122;52.424;13.458;2022-12-07T06:20:04;51.23;;;24.53;;
41887;SDS011;63122;52.424;13.458;2022-12-07T06:22:35;43.60;;;18.90;;
41887;SDS011;63122;52.424;13.458;2022-12-07T06:25:06;51.90;;;24.37;;
41887;SDS011;63122;52.424;13.458;2022-12-07T06:27:37;49.30;;;22.73;;
41887;SDS011;63122;52.424;13.458;2022-12-07T06:30:07;37.07;;;16.13;;
41887;SDS011;63122;52.424;13.458;2022-12-07T06:32:38;54.03;;;22.47;;
41887;SDS011;63122;52.424;13.458;2022-12-07T06:35:11;39.37;;;19.30;;
41887;SDS011;63122;52.424;13.458;2022-12-07T06:37:41;47.97;;;20.53;;
41887;SDS011;63122;52.424;13.458;2022-12-07T06:40:11;53.83;;;25.43;;
41887;SDS011;63122;52.424;13.458;2022-12-07T06:42:41;16.83;;;8.60;;
41887;SDS011;63122;52.424;13.458;2022-12-07T06:45:12;28.03;;;12.33;;
41887;SDS011;63122;52.424;13.458;2022-12-07T06:47:42;38.93;;;17.80;;
41887;SDS011;63122;52.424;13.458;2022-12-07T06:50:16;43.90;;;19.53;;
41887;SDS011;63122;52.424;13.458;2022-12-07T06:52:46;49.23;;;22.97;;
41887;SDS011;63122;52.424;13.458;2022-12-07T06:55:17;27.93;;;13.80;;
41887;SDS011;63122;52.424;13.458;2022-12-07T06:57:47;46.83;;;22.53;;
41887;SDS011;63122;52.424;13.458;2022-12-07T07:00:18;41.37;;;20.63;;
41887;SDS011;63122;52.424;13.458;2022-12-07T07:02:49;43.23;;;21.30;;
41887;SDS011;63122;52.424;13.458;2022-12-07T07:05:22;66.37;;;24.70;;
41887;SDS011;63122;52.424;13.458;2022-12-07T07:07:52;22.27;;;9.63;;
41887;SDS011;63122;52.424;13.458;2022-12-07T07:10:43;53.40;;;25.13;;
41887;SDS011;63122;52.424;13.458;2022-12-07T07:13:13;52.13;;;23.20;;
41887;SDS011;63122;52.424;13.458;2022-12-07T07:15:43;49.10;;;24.20;;
41887;SDS011;63122;52.424;13.458;2022-12-07T07:18:13;35.97;;;16.93;;
41887;SDS011;63122;52.424;13.458;2022-12-07T07:20:46;45.83;;;22.63;;
41887;SDS011;63122;52.424;13.458;2022-12-07T07:23:16;36.67;;;16.90;;
41887;SDS011;63122;52.424;13.458;2022-12-07T07:25:47;43.90;;;19.93;;
41887;SDS011;63122;52.424;13.458;2022-12-07T07:28:17;28.60;;;14.27;;
41887;SDS011;63122;52.424;13.458;2022-12-07T07:30:48;47.87;;;25.30;;
41887;SDS011;63122;52.424;13.458;2022-12-07T07:33:18;36.90;;;18.83;;
41887;SDS011;63122;52.424;13.458;2022-12-07T07:35:52;25.03;;;11.50;;
41887;SDS011;63122;52.424;13.458;2022-12-07T07:38:22;30.60;;;14.53;;
41887;SDS011;63122;52.424;13.458;2022-12-07T07:40:53;45.37;;;21.23;;
41887;SDS011;63122;52.424;13.458;2022-12-07T07:43:25;42.47;;;19.30;;
41887;SDS011;63122;52.424;13.458;2022-12-07T07:45:55;47.77;;;22.30;;
41887;SDS011;63122;52.424;13.458;2022-12-07T07:48:27;33.80;;;15.03;;
41887;SDS011;63122;52.424;13.458;2022-12-07T07:51:00;37.50;;;17.97;;
41887;SDS011;63122;52.424;13.458;2022-12-07T07:53:34;14.03;;;7.50;;
41887;SDS011;63122;52.424;13.458;2022-12-07T07:56:04;41.77;;;19.37;;
41887;SDS011;63122;52.424;13.458;2022-12-07T07:58:40;35.27;;;19.27;;
41887;SDS011;63122;52.424;13.458;2022-12-07T08:01:10;38.63;;;18.53;;
41887;SDS011;63122;52.424;13.458;2022-12-07T08:03:41;22.00;;;10.50;;
41887;SDS011;63122;52.424;13.458;2022-12-07T08:06:14;26.37;;;14.20;;
41887;SDS011;63122;52.424;13.458;2022-12-07T08:08:45;29.27;;;15.50;;
41887;SDS011;63122;52.424;13.458;2022-12-07T08:11:15;21.80;;;12.00;;
41887;SDS011;63122;52.424;13.458;2022-12-07T08:13:45;23.77;;;12.03;;
41887;SDS011;63122;52.424;13.458;2022-12-07T08:16:16;31.60;;;13.73;;
41887;SDS011;63122;52.424;13.458;2022-12-07T08:18:46;21.60;;;10.23;;
41887;SDS011;63122;52.424;13.458;2022-12-07T08:21:19;25.87;;;13.70;;
41887;SDS011;63122;52.424;13.458;2022-12-07T08:23:50;25.40;;;13.90;;
41887;SDS011;63122;52.424;13.458;2022-12-07T08:26:20;27.97;;;13.27;;
41887;SDS011;63122;52.424;13.458;2022-12-07T08:28:52;13.13;;;8.17;;
41887;SDS011;63122;52.424;13.458;2022-12-07T08:31:34;13.30;;;7.30;;
41887;SDS011;63122;52.424;13.458;2022-12-07T08:34:04;22.63;;;10.77;;
41887;SDS011;63122;52.424;13.458;2022-12-07T08:36:38;15.67;;;8.63;;
41887;SDS011;63122;52.424;13.458;2022-12-07T08:39:08;7.77;;;4.80;;
41887;SDS011;63122;52.424;13.458;2022-12-07T08:41:59;7.80;;;4.67;;
41887;SDS011;63122;52.424;13.458;2022-12-07T08:44:34;7.03;;;4.30;;
41887;SDS011;63122;52.424;13.458;2022-12-07T08:48:06;5.63;;;3.20;;
41887;SDS011;63122;52.424;13.458;2022-12-07T08:51:15;9.17;;;3.17;;
41887;SDS011;63122;52.424;13.458;2022-12-07T08:54:04;7.23;;;3.67;;
41887;SDS011;63122;52.424;13.458;2022-12-07T08:56:37;3.83;;;2.83;;
41887;SDS011;63122;52.424;13.458;2022-12-07T08:59:08;6.03;;;3.77;;
41887;SDS011;63122;52.424;13.458;2022-12-07T09:01:39;6.50;;;3.07;;
41887;SDS011;63122;52.424;13.458;2022-12-07T09:04:09;7.30;;;3.83;;
41887;SDS011;63122;52.424;13.458;2022-12-07T09:06:40;11.67;;;4.23;;
41887;SDS011;63122;52.424;13.458;2022-12-07T09:09:13;6.47;;;3.90;;
41887;SDS011;63122;52.424;13.458;2022-12-07T09:11:44;4.83;;;3.33;;
41887;SDS011;63122;52.424;13.458;2022-12-07T09:14:15;7.57;;;3.27;;
41887;SDS011;63122;52.424;13.458;2022-12-07T09:16:46;5.70;;;3.73;;
41887;SDS011;63122;52.424;13.458;2022-12-07T09:19:20;4.37;;;2.83;;
41887;SDS011;63122;52.424;13.458;2022-12-07T09:22:39;2.90;;;1.73;;
41887;SDS011;63122;52.424;13.458;2022-12-07T09:25:12;3.83;;;2.20;;
41887;SDS011;63122;52.424;13.458;2022-12-07T09:27:43;6.73;;;2.50;;
41887;SDS011;63122;52.424;13.458;2022-12-07T09:30:14;2.57;;;1.90;;
41887;SDS011;63122;52.424;13.458;2022-12-07T09:32:45;6.00;;;2.10;;
41887;SDS011;63122;52.424;13.458;2022-12-07T09:35:15;7.17;;;1.97;;
41887;SDS011;63122;52.424;13.458;2022-12-07T09:37:45;4.23;;;1.90;;
41887;SDS011;63122;52.424;13.458;2022-12-07T09:40:19;2.70;;;1.43;;
41887;SDS011;63122;52.424;13.458;2022-12-07T09:42:53;3.07;;;1.60;;
41887;SDS011;63122;52.424;13.458;2022-12-07T09:45:30;2.87;;;1.77;;
41887;SDS011;63122;52.424;13.458;2022-12-07T09:48:04;2.90;;;1.80;;
41887;SDS011;63122;52.424;13.458;2022-12-07T09:50:36;2.03;;;1.10;;
41887;SDS011;63122;52.424;13.458;2022-12-07T09:53:08;2.20;;;1.30;;
41887;SDS011;63122;52.424;13.458;2022-12-07T09:55:46;3.37;;;1.80;;
41887;SDS011;63122;52.424;13.458;2022-12-07T09:58:18;4.07;;;1.60;;
41887;SDS011;63122;52.424;13.458;2022-12-07T10:00:52;2.97;;;1.80;;
41887;SDS011;63122;52.424;13.458;2022-12-07T10:03:26;5.80;;;1.90;;
41887;SDS011;63122;52.424;13.458;2022-12-07T10:05:58;2.03;;;1.60;;
41887;SDS011;63122;52.424;13.458;2022-12-07T10:08:29;3.17;;;1.57;;
41887;SDS011;63122;52.424;13.458;2022-12-07T10:11:02;2.73;;;1.30;;
41887;SDS011;63122;52.424;13.458;2022-12-07T10:13:38;3.13;;;1.90;;
41887;SDS011;63122;52.424;13.458;2022-12-07T10:16:25;2.13;;;1.73;;
41887;SDS011;63122;52.424;13.458;2022-12-07T10:19:16;8.10;;;1.47;;
41887;SDS011;63122;52.424;13.458;2022-12-07T10:24:48;2.40;;;1.63;;
41887;SDS011;63122;52.424;13.458;2022-12-07T10:27:21;14.60;;;2.27;;
41887;SDS011;63122;52.424;13.458;2022-12-07T10:29:56;3.47;;;1.97;;
41887;SDS011;63122;52.424;13.458;2022-12-07T10:32:30;2.10;;;1.53;;
41887;SDS011;63122;52.424;13.458;2022-12-07T10:37:54;3.53;;;1.70;;
41887;SDS011;63122;52.424;13.458;2022-12-07T10:40:28;2.27;;;1.60;;
41887;SDS011;63122;52.424;13.458;2022-12-07T10:43:18;3.30;;;1.77;;
41887;SDS011;63122;52.424;13.458;2022-12-07T10:48:54;7.17;;;1.90;;
41887;SDS011;63122;52.424;13.458;2022-12-07T10:51:36;2.87;;;2.13;;
41887;SDS011;63122;52.424;13.458;2022-12-07T10:54:15;4.80;;;1.40;;
41887;SDS011;63122;52.424;13.458;2022-12-07T10:56:57;2.57;;;1.90;;
41887;SDS011;63122;52.424;13.458;2022-12-07T10:59:50;5.03;;;2.10;;
41887;SDS011;63122;52.424;13.458;2022-12-07T11:02:33;2.80;;;2.10;;
41887;SDS011;63122;52.424;13.458;2022-12-07T11:05:17;3.87;;;2.40;;
41887;SDS011;63122;52.424;13.458;2022-12-07T11:07:59;5.20;;;2.40;;
41887;SDS011;63122;52.424;13.458;2022-12-07T11:10:37;3.57;;;2.23;;
41887;SDS011;63122;52.424;13.458;2022-12-07T11:13:18;3.80;;;2.23;;
41887;SDS011;63122;52.424;13.458;2022-12-07T11:16:04;5.20;;;2.57;;
41887;SDS011;63122;52.424;13.458;2022-12-07T11:18:49;4.17;;;2.60;;
41887;SDS011;63122;52.424;13.458;2022-12-07T11:21:29;4.50;;;2.63;;
41887;SDS011;63122;52.424;13.458;2022-12-07T11:24:06;3.47;;;2.50;;
41887;SDS011;63122;52.424;13.458;2022-12-07T11:26:42;8.50;;;3.40;;
41887;SDS011;63122;52.424;13.458;2022-12-07T11:29:28;10.27;;;2.97;;
41887;SDS011;63122;52.424;13.458;2022-12-07T11:32:13;3.77;;;2.93;;
41887;SDS011;63122;52.424;13.458;2022-12-07T11:34:52;3.53;;;2.40;;
41887;SDS011;63122;52.424;13.458;2022-12-07T11:37:31;4.23;;;1.63;;
41887;SDS011;63122;52.424;13.458;2022-12-07T11:40:11;5.67;;;2.60;;
41887;SDS011;63122;52.424;13.458;2022-12-07T11:42:49;7.93;;;3.20;;
41887;SDS011;63122;52.424;13.458;2022-12-07T11:45:24;7.13;;;3.20;;
41887;SDS011;63122;52.424;13.458;2022-12-07T11:48:00;8.97;;;3.23;;
41887;SDS011;63122;52.424;13.458;2022-12-07T11:50:33;7.67;;;3.10;;
41887;SDS011;63122;52.424;13.458;2022-12-07T11:53:10;8.40;;;2.73;;
41887;SDS011;63122;52.424;13.458;2022-12-07T11:55:45;3.60;;;1.70;;
41887;SDS011;63122;52.424;13.458;2022-12-07T11:58:23;6.93;;;3.00;;
41887;SDS011;63122;52.424;13.458;2022-12-07T12:04:27;5.33;;;2.20;;
41887;SDS011;63122;52.424;13.458;2022-12-07T12:07:10;16.73;;;2.93;;
41887;SDS011;63122;52.424;13.458;2022-12-07T12:10:29;7.47;;;2.50;;
41887;SDS011;63122;52.424;13.458;2022-12-07T12:13:14;4.07;;;2.10;;
41887;SDS011;63122;52.424;13.458;2022-12-07T12:19:30;8.20;;;2.47;;
41887;SDS011;63122;52.424;13.458;2022-12-07T12:22:06;9.40;;;2.33;;
41887;SDS011;63122;52.424;13.458;2022-12-07T12:24:45;6.20;;;2.40;;
41887;SDS011;63122;52.424;13.458;2022-12-07T12:27:20;3.70;;;2.10;;
41887;SDS011;63122;52.424;13.458;2022-12-07T12:29:54;10.20;;;2.30;;
41887;SDS011;63122;52.424;13.458;2022-12-07T12:32:30;5.67;;;2.27;;
41887;SDS011;63122;52.424;13.458;2022-12-07T12:35:27;5.97;;;2.37;;
41887;SDS011;63122;52.424;13.458;2022-12-07T12:41:02;9.53;;;2.77;;
41887;SDS011;63122;52.424;13.458;2022-12-07T12:43:40;10.70;;;2.90;;
41887;SDS011;63122;52.424;13.458;2022-12-07T12:49:30;6.20;;;2.30;;
41887;SDS011;63122;52.424;13.458;2022-12-07T12:55:24;5.47;;;2.00;;
41887;SDS011;63122;52.424;13.458;2022-12-07T12:58:28;6.80;;;2.73;;
41887;SDS011;63122;52.424;13.458;2022-12-07T13:07:10;6.67;;;2.47;;
41887;SDS011;63122;52.424;13.458;2022-12-07T13:09:43;8.27;;;2.33;;
41887;SDS011;63122;52.424;13.458;2022-12-07T13:12:18;5.97;;;2.23;;
41887;SDS011;63122;52.424;13.458;2022-12-07T13:14:56;4.87;;;2.17;;
41887;SDS011;63122;52.424;13.458;2022-12-07T13:20:42;10.87;;;2.87;;
41887;SDS011;63122;52.424;13.458;2022-12-07T13:23:16;4.63;;;1.97;;
41887;SDS011;63122;52.424;13.458;2022-12-07T13:25:51;7.73;;;2.03;;
41887;SDS011;63122;52.424;13.458;2022-12-07T13:28:35;6.57;;;2.13;;
41887;SDS011;63122;52.424;13.458;2022-12-07T13:31:12;4.43;;;1.43;;
41887;SDS011;63122;52.424;13.458;2022-12-07T13:33:58;12.43;;;2.37;;
41887;SDS011;63122;52.424;13.458;2022-12-07T13:36:38;7.87;;;1.90;;
41887;SDS011;63122;52.424;13.458;2022-12-07T13:39:18;14.77;;;2.47;;
41887;SDS011;63122;52.424;13.458;2022-12-07T13:41:51;6.90;;;1.70;;
41887;SDS011;63122;52.424;13.458;2022-12-07T13:44:26;5.23;;;1.77;;
41887;SDS011;63122;52.424;13.458;2022-12-07T13:47:00;6.77;;;2.43;;
41887;SDS011;63122;52.424;13.458;2022-12-07T13:49:37;7.53;;;2.37;;
41887;SDS011;63122;52.424;13.458;2022-12-07T13:52:20;6.80;;;2.13;;
41887;SDS011;63122;52.424;13.458;2022-12-07T13:54:55;7.97;;;1.80;;
41887;SDS011;63122;52.424;13.458;2022-12-07T13:57:28;14.10;;;2.40;;
41887;SDS011;63122;52.424;13.458;2022-12-07T14:00:04;6.63;;;1.70;;
41887;SDS011;63122;52.424;13.458;2022-12-07T14:02:54;8.73;;;2.37;;
41887;SDS011;63122;52.424;13.458;2022-12-07T14:05:27;6.27;;;2.27;;
41887;SDS011;63122;52.424;13.458;2022-12-07T14:07:59;8.13;;;2.20;;
41887;SDS011;63122;52.424;13.458;2022-12-07T14:10:32;5.80;;;1.80;;
41887;SDS011;63122;52.424;13.458;2022-12-07T14:13:21;8.97;;;2.37;;
41887;SDS011;63122;52.424;13.458;2022-12-07T14:16:01;14.83;;;2.33;;
41887;SDS011;63122;52.424;13.458;2022-12-07T14:18:36;7.60;;;2.17;;
41887;SDS011;63122;52.424;13.458;2022-12-07T14:21:14;7.17;;;2.67;;
41887;SDS011;63122;52.424;13.458;2022-12-07T14:23:47;6.03;;;1.80;;
41887;SDS011;63122;52.424;13.458;2022-12-07T14:26:42;10.00;;;2.40;;
41887;SDS011;63122;52.424;13.458;2022-12-07T14:29:20;7.10;;;2.43;;
41887;SDS011;63122;52.424;13.458;2022-12-07T14:32:04;15.17;;;2.93;;
41887;SDS011;63122;52.424;13.458;2022-12-07T14:34:57;2.13;;;1.30;;
41887;SDS011;63122;52.424;13.458;2022-12-07T14:37:30;9.23;;;2.63;;
41887;SDS011;63122;52.424;13.458;2022-12-07T14:40:00;4.87;;;2.10;;
41887;SDS011;63122;52.424;13.458;2022-12-07T14:42:30;9.17;;;2.40;;
41887;SDS011;63122;52.424;13.458;2022-12-07T14:45:03;13.03;;;2.63;;
41887;SDS011;63122;52.424;13.458;2022-12-07T14:47:38;4.70;;;1.90;;
41887;SDS011;63122;52.424;13.458;2022-12-07T14:50:28;12.80;;;2.60;;
41887;SDS011;63122;52.424;13.458;2022-12-07T14:53:00;2.63;;;1.30;;
41887;SDS011;63122;52.424;13.458;2022-12-07T14:55:52;9.03;;;2.03;;
41887;SDS011;63122;52.424;13.458;2022-12-07T14:58:22;10.90;;;2.63;;
41887;SDS011;63122;52.424;13.458;2022-12-07T15:00:53;8.70;;;2.40;;
41887;SDS011;63122;52.424;13.458;2022-12-07T15:03:25;8.60;;;2.23;;
41887;SDS011;63122;52.424;13.458;2022-12-07T15:05:56;5.70;;;1.80;;
41887;SDS011;63122;52.424;13.458;2022-12-07T15:08:26;9.07;;;2.33;;
41887;SDS011;63122;52.424;13.458;2022-12-07T15:10:57;9.67;;;2.30;;
41887;SDS011;63122;52.424;13.458;2022-12-07T15:13:27;10.27;;;2.23;;
41887;SDS011;63122;52.424;13.458;2022-12-07T15:16:11;10.77;;;2.20;;
41887;SDS011;63122;52.424;13.458;2022-12-07T15:18:45;7.27;;;2.00;;
41887;SDS011;63122;52.424;13.458;2022-12-07T15:21:30;7.97;;;1.87;;
41887;SDS011;63122;52.424;13.458;2022-12-07T15:24:00;7.20;;;2.10;;
41887;SDS011;63122;52.424;13.458;2022-12-07T15:26:31;11.33;;;2.80;;
41887;SDS011;63122;52.424;13.458;2022-12-07T15:29:01;4.53;;;1.67;;
41887;SDS011;63122;52.424;13.458;2022-12-07T15:31:36;13.83;;;2.93;;
41887;SDS011;63122;52.424;13.458;2022-12-07T15:34:25;9.27;;;2.50;;
41887;SDS011;63122;52.424;13.458;2022-12-07T15:37:07;10.87;;;2.40;;
41887;SDS011;63122;52.424;13.458;2022-12-07T15:39:38;11.87;;;2.57;;
41887;SDS011;63122;52.424;13.458;2022-12-07T15:42:08;12.60;;;3.27;;
41887;SDS011;63122;52.424;13.458;2022-12-07T15:44:41;12.20;;;2.90;;